Impacts METAR Board
IDs:

KDCA - Washington/National, VA, US

Updated at: 0100 UTC 18 Aug 2018
Potential Impact None Slight Moderate High
Time 17/13Z 17/14Z 17/15Z 17/16Z 17/17Z 17/18Z 17/19Z 17/20Z 17/21Z 17/22Z 17/23Z 18/00Z 18/01Z
Temp80 82 86 87 89 93 93 93 91 88 88 82 80
Dewpt74 74 75 75 75 74 73 73 72 74 72 70 69
Altim30.08 30.07 30.06 30.05 30.03 30.01 29.99 29.98 29.97 29.97 29.98 29.96 29.96
VIS9 10 10 10 10 10 10 10 10 10 10 10 10
CIG250 250 250 250 250 250 250 250 250 140 80 170 170
CoverBKNBKNBKNOVCBKNBKNBKNOVCOVCOVCOVCOVCOVC
FltCatVFRVFRVFRVFRVFRVFRVFRVFRVFRVFRVFRVFRVFR
WX-----------------------RA--
WDir170170170170170180170190190190250220200
WSpd7 7 7 9 10 12 12 12 10 9 9 7 6
WGst-- -- -- -- -- -- -- -- 18 -- 19 -- --
Raw hourly METARs
KDCA 171252Z 17007KT 9SM FEW160 BKN250 27/23 A3008 RMK AO2 SLP184 T02670233
KDCA 171352Z 17007KT 10SM FEW160 BKN250 28/23 A3007 RMK AO2 SLP183 T02780233
KDCA 171452Z 17007KT 10SM FEW160 BKN250 30/24 A3006 RMK AO2 SLP180 T03000239 56008
KDCA 171552Z 17009KT 10SM SCT160 OVC250 31/24 A3005 RMK AO2 SLP176 T03060239
KDCA 171652Z 17010KT 10SM SCT170 BKN250 32/24 A3003 RMK AO2 SLP168 T03170239
KDCA 171752Z 18012KT 10SM FEW040 FEW170 BKN250 34/23 A3001 RMK AO2 SLP162 T03390233 10339 20261 58019
KDCA 171852Z 17012KT 10SM FEW045 FEW140 BKN250 34/23 A2999 RMK AO2 SLP155 T03390228
KDCA 171952Z 19012KT 10SM SCT047 SCT150 OVC250 34/23 A2998 RMK AO2 SLP151 T03390228
KDCA 172052Z 19010G18KT 10SM FEW050 OVC250 33/22 A2997 RMK AO2 SLP149 T03280222 56012
KDCA 172152Z 19009KT 10SM BKN140 OVC230 31/23 A2997 RMK AO2 SLP148 T03110233
KDCA 172252Z 25009G19KT 10SM SCT040 BKN080 OVC180 31/22 A2998 RMK AO2 SLP150 T03110222
KDCA 172352Z 22007KT 10SM -RA FEW050 SCT080 BKN170 OVC230 28/21 A2996 RMK AO2 RAB2259 SLP145 P0000 60000 T02780211 10344 20278 58004
KDCA 180052Z 20006KT 10SM BKN170 OVC230 27/21 A2996 RMK AO2 RAE27 SLP146 P0000 T02670206



Page loaded:  01:27 UTC  |   06:27 PM Pacific  |   07:27 PM Mountain  |   08:27 PM Central  |   09:27 PM Eastern

 

ADVISORIES

FORECASTS

FORECASTS

OBSERVATIONS

USER TOOLS

ABOUT US